createdAt,value
2023-03-14T00:02:02.149Z,12.06
2023-03-14T00:07:04.412Z,12.04
2023-03-14T00:12:07.841Z,11.98
2023-03-14T00:17:09.683Z,12.00
2023-03-14T00:22:11.355Z,11.87
2023-03-14T00:27:13.039Z,11.84
2023-03-14T00:32:14.679Z,11.91
2023-03-14T00:37:16.883Z,11.86
2023-03-14T00:42:18.677Z,11.70
2023-03-14T00:47:20.308Z,11.70
2023-03-14T00:52:21.968Z,11.78
2023-03-14T00:57:23.661Z,11.71
2023-03-14T01:02:25.389Z,11.69
2023-03-14T01:07:27.153Z,11.72
2023-03-14T01:12:28.930Z,11.70
2023-03-14T01:17:30.590Z,11.68
2023-03-14T01:22:32.721Z,11.65
2023-03-14T01:27:34.746Z,11.48
2023-03-14T01:32:37.066Z,11.39
2023-03-14T01:37:38.901Z,11.19
2023-03-14T01:42:57.231Z,10.99
2023-03-14T01:47:59.230Z,10.98
2023-03-14T01:53:01.323Z,10.87
2023-03-14T01:58:06.090Z,10.95
2023-03-14T02:03:15.194Z,10.96
2023-03-14T02:08:20.502Z,10.96
2023-03-14T02:13:44.277Z,10.92
2023-03-14T02:19:03.881Z,10.91
2023-03-14T02:24:34.766Z,10.91
2023-03-14T02:29:50.426Z,10.89
2023-03-14T02:34:58.505Z,10.87
2023-03-14T02:40:01.296Z,10.89
2023-03-14T02:45:09.289Z,10.92
2023-03-14T02:50:18.951Z,10.95
2023-03-14T02:55:26.524Z,11.00
2023-03-14T03:00:31.696Z,11.00
2023-03-14T03:05:34.375Z,11.03
2023-03-14T03:10:37.717Z,11.06
2023-03-14T03:15:41.952Z,11.07
2023-03-14T03:20:43.938Z,11.10
2023-03-14T03:25:50.798Z,11.11
2023-03-14T03:30:52.796Z,11.14
2023-03-14T03:35:54.928Z,11.17
2023-03-14T03:41:07.016Z,11.16
2023-03-14T03:46:08.929Z,11.14
2023-03-14T03:51:15.106Z,11.10
2023-03-14T03:56:17.094Z,11.10
2023-03-14T04:01:19.734Z,11.09
2023-03-14T04:06:24.813Z,11.05
2023-03-14T04:11:30.545Z,11.05
2023-03-14T04:16:51.652Z,11.05
2023-03-14T04:21:55.580Z,11.03
2023-03-14T04:27:00.743Z,11.05
2023-03-14T04:32:02.919Z,11.03
2023-03-14T04:37:04.679Z,10.99
2023-03-14T04:42:11.852Z,10.96
2023-03-14T04:47:14.250Z,10.91
2023-03-14T04:52:17.664Z,10.90
2023-03-14T04:57:22.509Z,10.91
2023-03-14T05:02:25.087Z,10.86
2023-03-14T05:07:36.388Z,10.83
2023-03-14T05:13:10.192Z,10.80
2023-03-14T05:18:30.318Z,10.77
2023-03-14T05:24:01.186Z,10.75
2023-03-14T05:29:35.209Z,10.74
2023-03-14T05:34:44.586Z,10.74
2023-03-14T05:39:56.392Z,10.70
2023-03-14T05:45:16.029Z,10.68
2023-03-14T05:50:26.942Z,10.71
2023-03-14T05:55:58.429Z,10.66
2023-03-14T06:01:16.737Z,10.65
2023-03-14T06:06:37.058Z,10.66
2023-03-14T06:11:38.978Z,10.66
2023-03-14T06:16:42.156Z,10.68
2023-03-14T06:21:45.917Z,10.67
2023-03-14T06:26:48.052Z,10.68
2023-03-14T06:31:50.315Z,10.71
2023-03-14T06:36:53.938Z,10.71
2023-03-14T06:41:56.161Z,10.78
2023-03-14T06:46:58.195Z,10.76
2023-03-14T06:52:01.199Z,10.80
2023-03-14T06:57:05.477Z,10.85
2023-03-14T07:02:13.492Z,10.88
2023-03-14T07:07:17.555Z,10.89
2023-03-14T07:12:19.716Z,10.94
2023-03-14T07:17:21.387Z,10.97
2023-03-14T07:22:23.193Z,11.02
2023-03-14T07:27:24.964Z,11.01
2023-03-14T07:32:26.888Z,10.99
2023-03-14T07:37:28.780Z,10.98
2023-03-14T07:42:30.962Z,10.99
2023-03-14T07:47:58.404Z,11.01
2023-03-14T07:53:00.223Z,11.01
2023-03-14T07:58:02.751Z,11.06
2023-03-14T08:03:04.558Z,11.09
2023-03-14T08:08:06.800Z,11.16
2023-03-14T08:13:09.780Z,11.24
2023-03-14T08:18:11.608Z,11.31
2023-03-14T08:23:13.502Z,11.43
2023-03-14T08:28:15.248Z,11.50
2023-03-14T08:33:18.023Z,11.52
2023-03-14T08:38:20.279Z,11.61
2023-03-14T08:43:22.005Z,11.65
2023-03-14T08:48:23.751Z,11.74
2023-03-14T08:53:25.410Z,11.77
2023-03-14T08:58:27.290Z,11.84
2023-03-14T09:03:29.677Z,11.87
2023-03-14T09:08:31.845Z,11.93
2023-03-14T09:13:33.610Z,12.01
2023-03-14T09:18:35.386Z,12.08
2023-03-14T09:23:37.073Z,12.15
2023-03-14T09:28:38.745Z,12.23
2023-03-14T09:33:40.427Z,12.30
2023-03-14T09:38:42.175Z,12.46
2023-03-14T09:43:46.296Z,12.57
2023-03-14T09:48:48.268Z,12.64
2023-03-14T09:53:51.172Z,12.76
2023-03-14T09:58:55.846Z,12.81
2023-03-14T10:04:01.673Z,12.82
2023-03-14T10:09:04.435Z,12.90
2023-03-14T10:14:09.134Z,12.92
2023-03-14T10:19:14.036Z,13.10
2023-03-14T10:24:23.192Z,13.10
2023-03-14T10:29:25.104Z,13.23
2023-03-14T10:34:31.147Z,13.33
2023-03-14T10:39:46.162Z,13.36
2023-03-14T10:44:54.772Z,13.48
2023-03-14T10:49:58.301Z,13.69
2023-03-14T10:55:10.581Z,13.65
2023-03-14T11:00:18.559Z,13.59
2023-03-14T11:05:21.045Z,13.67
2023-03-14T11:10:36.405Z,13.76
2023-03-14T11:15:54.761Z,13.69
2023-03-14T11:21:07.751Z,13.71
2023-03-14T11:26:40.709Z,13.67
2023-03-14T11:31:45.418Z,13.61
2023-03-14T11:37:00.342Z,13.61
2023-03-14T11:42:04.818Z,13.66
2023-03-14T11:47:19.926Z,13.85
2023-03-14T11:52:28.025Z,14.07
2023-03-14T11:57:29.781Z,14.03
2023-03-14T12:02:31.526Z,14.00
2023-03-14T12:07:58.719Z,14.03
2023-03-14T12:13:00.785Z,14.03
2023-03-14T12:18:02.487Z,13.98
2023-03-14T12:23:11.170Z,14.05
2023-03-14T12:28:22.017Z,14.12
2023-03-14T12:33:31.468Z,14.09
2023-03-14T12:38:58.891Z,14.04
2023-03-14T12:44:29.446Z,14.08
2023-03-14T12:49:33.084Z,14.11
2023-03-14T12:54:58.596Z,14.16
2023-03-14T13:00:05.394Z,13.96
2023-03-14T13:05:12.133Z,13.92
2023-03-14T13:10:23.518Z,13.86
2023-03-14T13:15:39.024Z,13.80
2023-03-14T13:20:52.435Z,13.74
2023-03-14T13:25:54.966Z,13.64
2023-03-14T13:31:03.183Z,13.50
2023-03-14T13:36:06.691Z,13.39
2023-03-14T13:41:09.199Z,13.37
2023-03-14T13:46:26.202Z,13.14
2023-03-14T13:51:32.579Z,12.61
2023-03-14T13:56:34.512Z,12.06
2023-03-14T14:01:39.499Z,11.55
2023-03-14T14:07:08.916Z,11.44
2023-03-14T14:12:53.004Z,11.40
2023-03-14T14:18:00.177Z,11.42
2023-03-14T14:23:03.965Z,11.42
2023-03-14T14:28:27.754Z,11.36
2023-03-14T14:33:29.525Z,11.11
2023-03-14T14:38:31.517Z,10.85
2023-03-14T14:43:39.715Z,10.74
2023-03-14T14:48:41.537Z,10.63
2023-03-14T14:53:44.271Z,10.52
2023-03-14T14:58:47.262Z,10.44
2023-03-14T15:03:52.424Z,10.48
2023-03-14T15:08:54.311Z,10.65
2023-03-14T15:13:56.089Z,10.74
2023-03-14T15:19:00.816Z,10.68
2023-03-14T15:24:03.017Z,10.56
2023-03-14T15:29:08.949Z,10.50
2023-03-14T15:34:11.489Z,10.45
2023-03-14T15:39:13.630Z,10.41
2023-03-14T15:44:15.341Z,10.31
2023-03-14T15:49:17.080Z,10.22
2023-03-14T15:54:18.758Z,10.21
2023-03-14T15:59:20.619Z,10.15
2023-03-14T16:04:22.335Z,10.10
2023-03-14T16:09:25.771Z,10.05
2023-03-14T16:14:27.596Z,10.16
2023-03-14T16:19:31.681Z,10.07
2023-03-14T16:24:33.404Z,9.89
2023-03-14T16:29:35.263Z,9.67
2023-03-14T16:34:42.379Z,9.44
2023-03-14T16:40:07.404Z,9.24
2023-03-14T16:45:06.415Z,9.02
2023-03-14T16:50:08.561Z,8.92
2023-03-14T16:55:10.791Z,8.82
2023-03-14T17:00:13.165Z,8.73
2023-03-14T17:05:14.997Z,8.66
2023-03-14T17:10:17.548Z,8.69
2023-03-14T17:15:19.260Z,8.60
2023-03-14T17:20:21.240Z,8.56
2023-03-14T17:25:25.500Z,8.51
2023-03-14T17:30:27.240Z,8.47
2023-03-14T17:35:29.050Z,8.43
2023-03-14T17:40:31.496Z,8.38
2023-03-14T17:45:33.692Z,8.36
2023-03-14T17:50:36.286Z,8.33
2023-03-14T17:55:38.110Z,8.33
2023-03-14T18:00:41.397Z,8.24
2023-03-14T18:05:43.790Z,8.19
2023-03-14T18:10:45.831Z,8.26
2023-03-14T18:15:55.258Z,8.22
2023-03-14T18:20:58.127Z,8.14
2023-03-14T18:26:00.955Z,8.19
2023-03-14T18:31:06.535Z,8.12
2023-03-14T18:36:09.621Z,8.11
2023-03-14T18:41:13.888Z,8.16
2023-03-14T18:46:16.274Z,8.16
2023-03-14T18:51:18.184Z,8.10
2023-03-14T18:56:19.871Z,7.99
2023-03-14T19:01:22.645Z,7.99
2023-03-14T19:06:25.031Z,8.06
2023-03-14T19:11:26.792Z,8.09
2023-03-14T19:16:28.641Z,8.06
2023-03-14T19:21:34.040Z,8.08
2023-03-14T19:26:36.690Z,8.08
2023-03-14T19:31:38.395Z,8.20
2023-03-14T19:36:40.260Z,8.15
2023-03-14T19:41:42.382Z,8.11
2023-03-14T19:46:44.434Z,8.12
2023-03-14T19:51:46.128Z,8.12
2023-03-14T19:56:49.142Z,8.10
2023-03-14T20:01:52.523Z,8.07
2023-03-14T20:06:54.184Z,8.08
2023-03-14T20:11:55.946Z,8.10
2023-03-14T20:16:58.073Z,8.08
2023-03-14T20:22:02.781Z,7.97
2023-03-14T20:27:06.058Z,7.81
2023-03-14T20:32:09.478Z,7.76
2023-03-14T20:37:13.494Z,7.62
2023-03-14T20:42:15.933Z,7.67
2023-03-14T20:47:17.620Z,7.61
2023-03-14T20:52:19.634Z,7.70
2023-03-14T20:57:21.367Z,7.65
2023-03-14T21:02:23.288Z,7.62
2023-03-14T21:07:24.928Z,7.37
2023-03-14T21:12:26.648Z,6.79
2023-03-14T21:17:28.371Z,6.73
2023-03-14T21:22:30.345Z,6.63
2023-03-14T21:27:32.679Z,6.54
2023-03-14T21:32:34.534Z,6.58
2023-03-14T21:37:36.505Z,6.37
2023-03-14T21:42:38.333Z,6.26
2023-03-14T21:47:41.666Z,6.19
2023-03-14T21:52:46.326Z,6.27
2023-03-14T21:57:49.187Z,6.32
2023-03-14T22:03:11.771Z,6.29
2023-03-14T22:08:16.149Z,6.23
2023-03-14T22:13:18.726Z,6.17
2023-03-14T22:18:20.408Z,6.20
2023-03-14T22:23:22.089Z,6.03
2023-03-14T22:28:23.783Z,6.05
2023-03-14T22:33:25.699Z,6.08
2023-03-14T22:38:27.551Z,6.12
2023-03-14T22:43:30.299Z,5.98
2023-03-14T22:48:32.745Z,5.97
2023-03-14T22:53:34.869Z,6.03
2023-03-14T22:58:36.642Z,6.17
2023-03-14T23:03:38.403Z,6.04
2023-03-14T23:08:40.144Z,6.08
2023-03-14T23:13:42.755Z,6.16
2023-03-14T23:18:44.456Z,6.26
2023-03-14T23:23:47.921Z,6.30
2023-03-14T23:28:50.789Z,6.34
2023-03-14T23:33:52.406Z,6.37
2023-03-14T23:38:54.096Z,6.36
2023-03-14T23:43:55.805Z,6.33
2023-03-14T23:48:58.271Z,6.41
2023-03-14T23:53:59.981Z,6.46
2023-03-14T23:59:01.744Z,6.44
